createdAt,value
2018-06-18T07:19:11.523Z,75.00
2018-06-18T07:21:41.644Z,75.30
2018-06-18T07:24:11.722Z,75.80
2018-06-18T07:26:41.721Z,74.30
2018-06-18T07:29:11.760Z,71.90
2018-06-18T07:31:41.747Z,74.50
2018-06-18T07:34:11.815Z,73.50
2018-06-18T07:36:42.055Z,70.70
2018-06-18T07:39:12.090Z,69.90
2018-06-18T07:41:42.111Z,71.40
2018-06-18T07:44:12.208Z,71.40
2018-06-18T07:46:42.251Z,70.70
2018-06-18T07:49:12.264Z,70.90
2018-06-18T07:54:12.059Z,68.00
2018-06-18T07:56:42.042Z,67.30
2018-06-18T07:59:12.104Z,67.30
2018-06-18T08:01:42.168Z,64.60
2018-06-18T08:04:12.161Z,64.00
2018-06-18T08:06:42.302Z,65.00
2018-06-18T08:09:13.951Z,65.20
2018-06-18T08:11:44.533Z,66.30
2018-06-18T08:14:15.019Z,63.30
2018-06-18T08:16:45.528Z,69.00
2018-06-18T08:19:15.797Z,66.30
2018-06-18T08:21:46.257Z,68.40
2018-06-18T08:24:16.739Z,65.30
2018-06-18T08:26:46.831Z,64.20
2018-06-18T08:29:16.822Z,62.10
2018-06-18T08:31:46.890Z,61.10
2018-06-18T08:34:16.969Z,63.90
2018-06-18T08:36:47.216Z,64.40
2018-06-18T08:39:17.235Z,66.50
2018-06-18T08:41:47.285Z,60.70
2018-06-18T08:44:17.235Z,59.20
2018-06-18T08:46:49.588Z,59.80
2018-06-18T08:49:19.782Z,65.40
2018-06-18T08:51:55.004Z,60.00
2018-06-18T08:54:29.947Z,57.90
2018-06-18T08:57:05.048Z,59.60
2018-06-18T08:59:40.189Z,62.60
2018-06-18T09:02:10.268Z,62.00
2018-06-18T09:04:45.279Z,61.00
2018-06-18T09:07:17.316Z,59.40
2018-06-18T09:09:47.325Z,61.60
2018-06-18T09:12:17.391Z,59.00
2018-06-18T09:14:47.368Z,59.70
2018-06-18T09:17:17.378Z,60.90
2018-06-18T09:19:47.385Z,61.60
2018-06-18T09:26:41.874Z,62.50
2018-06-18T09:29:11.906Z,60.10
2018-06-18T09:31:47.224Z,59.10
2018-06-18T09:34:17.235Z,57.90
2018-06-18T09:36:47.267Z,57.00
2018-06-18T09:39:17.234Z,60.70
2018-06-18T09:41:47.278Z,54.80
2018-06-18T09:44:17.326Z,57.50
2018-06-18T09:46:47.423Z,56.40
2018-06-18T09:49:22.642Z,60.30
2018-06-18T09:51:57.759Z,57.40
2018-06-18T09:54:32.795Z,55.20
2018-06-18T09:57:07.781Z,54.90
2018-06-18T09:59:58.340Z,54.60
2018-06-18T10:02:29.314Z,57.90
2018-06-18T10:05:00.343Z,56.60
2018-06-18T10:07:30.407Z,53.30
2018-06-18T10:10:00.411Z,55.50
2018-06-18T10:12:30.681Z,55.10
2018-06-18T10:15:00.712Z,55.10
2018-06-18T10:17:30.788Z,56.10
2018-06-18T10:20:00.778Z,53.10
2018-06-18T10:22:30.914Z,54.10
2018-06-18T10:25:00.955Z,55.80
2018-06-18T10:27:31.084Z,54.40
2018-06-18T10:30:01.087Z,53.00
2018-06-18T10:39:48.122Z,52.70
2018-06-18T10:43:24.830Z,53.80
2018-06-18T10:45:54.842Z,51.90
2018-06-18T10:48:25.370Z,52.30
2018-06-18T10:50:56.065Z,54.10
2018-06-18T10:53:26.103Z,52.60
2018-06-18T10:55:56.159Z,55.00
2018-06-18T10:58:26.213Z,50.10
2018-06-18T11:01:03.202Z,49.20
2018-06-18T11:03:34.006Z,50.80
2018-06-18T11:06:09.136Z,52.70
2018-06-18T11:08:39.150Z,48.40
2018-06-18T11:11:09.120Z,51.70
2018-06-18T11:13:39.149Z,51.00
2018-06-18T11:16:09.206Z,52.90
2018-06-18T11:18:44.199Z,51.70
2018-06-18T11:21:19.397Z,53.40
2018-06-18T11:23:54.448Z,50.70
2018-06-18T11:26:29.649Z,52.90
2018-06-18T11:28:59.619Z,51.30
2018-06-18T11:31:29.616Z,53.20
2018-06-18T11:33:59.653Z,49.20
2018-06-18T11:36:29.632Z,49.70
2018-06-18T11:41:29.258Z,53.90
2018-06-18T11:43:59.310Z,52.90
2018-06-18T11:46:29.355Z,50.10
2018-06-18T11:48:59.404Z,54.00
2018-06-18T11:53:59.067Z,51.80
2018-06-18T11:56:29.193Z,48.30
2018-06-18T11:59:04.250Z,53.10
2018-06-18T12:01:39.379Z,50.70
2018-06-18T12:04:14.334Z,52.00
2018-06-18T12:06:49.419Z,50.50
2018-06-18T12:09:24.673Z,52.40
2018-06-18T12:11:54.679Z,51.20
2018-06-18T12:14:24.789Z,50.90
2018-06-18T12:16:54.792Z,55.40
2018-06-18T12:19:24.893Z,51.80
2018-06-18T12:21:54.908Z,50.40
2018-06-18T12:24:24.954Z,47.90
2018-06-18T12:26:55.055Z,49.60
2018-06-18T12:29:25.150Z,48.00
2018-06-18T12:31:55.183Z,50.00
2018-06-18T12:34:25.230Z,50.70
2018-06-18T12:36:55.222Z,50.60
2018-06-18T12:39:25.283Z,51.00
2018-06-18T12:42:03.322Z,49.10
2018-06-18T12:44:40.444Z,52.10
2018-06-18T12:47:15.403Z,53.50
2018-06-18T12:49:50.398Z,51.20
2018-06-18T12:52:25.490Z,50.30
2018-06-18T12:55:00.773Z,50.90
2018-06-18T12:57:30.891Z,53.20
2018-06-18T13:00:00.934Z,50.80
2018-06-18T13:02:41.854Z,52.00
2018-06-18T13:05:11.871Z,48.30
2018-06-18T13:07:41.880Z,49.70
2018-06-18T13:10:12.021Z,49.40
2018-06-18T13:12:41.994Z,53.30
2018-06-18T13:15:12.011Z,52.30
2018-06-18T13:17:42.015Z,46.70
2018-06-18T13:20:12.139Z,49.70
2018-06-18T13:22:42.109Z,47.90
2018-06-18T13:25:12.151Z,51.70
2018-06-18T13:27:47.311Z,48.70
2018-06-18T13:30:17.345Z,49.50
2018-06-18T13:32:47.334Z,48.40
2018-06-18T13:37:52.084Z,50.20
2018-06-18T13:40:27.245Z,51.60
2018-06-18T13:43:02.343Z,52.20
2018-06-18T13:45:39.414Z,49.60
2018-06-18T13:48:14.434Z,51.90
2018-06-18T13:50:44.520Z,49.20
2018-06-18T13:53:14.549Z,51.70
2018-06-18T13:55:44.628Z,52.70
2018-06-18T13:58:14.647Z,54.30
2018-06-18T14:03:14.344Z,53.30
2018-06-18T14:05:44.403Z,52.00
2018-06-18T14:08:14.398Z,50.80
2018-06-18T14:10:44.430Z,53.00
2018-06-18T14:13:14.610Z,51.60
2018-06-18T14:15:44.568Z,52.50
2018-06-18T14:18:14.542Z,51.70
2018-06-18T14:20:44.516Z,52.80
2018-06-18T14:23:14.547Z,52.60
2018-06-18T14:25:44.541Z,53.20
2018-06-18T14:28:14.563Z,54.20
2018-06-18T14:30:49.735Z,54.80
2018-06-18T14:33:24.742Z,52.90
2018-06-18T14:35:59.841Z,51.70
2018-06-18T14:38:35.102Z,53.20
2018-06-18T14:41:05.124Z,52.40
2018-06-18T14:43:35.139Z,53.20
2018-06-18T14:46:05.257Z,53.20
2018-06-18T14:48:35.293Z,55.00
2018-06-18T14:51:05.335Z,53.40
2018-06-18T14:53:35.366Z,53.90
2018-06-18T14:56:18.178Z,53.80
2018-06-18T15:01:23.677Z,53.90
2018-06-18T15:03:53.806Z,53.10
2018-06-18T15:06:23.711Z,55.00
2018-06-18T15:08:53.748Z,52.90
2018-06-18T15:11:23.736Z,54.00
2018-06-18T15:13:53.874Z,55.60
2018-06-18T15:16:29.069Z,57.00
2018-06-18T15:18:59.904Z,55.40
2018-06-18T15:21:32.586Z,55.40
2018-06-18T15:24:06.533Z,55.20
2018-06-18T15:26:36.513Z,55.00
2018-06-18T15:29:06.537Z,55.10
2018-06-18T15:31:36.512Z,56.20
2018-06-18T15:34:06.534Z,55.90
2018-06-18T15:36:36.507Z,53.40
2018-06-18T15:39:10.233Z,53.50
2018-06-18T15:41:40.224Z,55.70
2018-06-18T15:44:10.465Z,55.10
2018-06-18T15:46:40.269Z,55.10
2018-06-18T15:51:39.913Z,56.10
2018-06-18T15:56:39.570Z,54.80
2018-06-18T15:59:09.526Z,55.30
2018-06-18T16:01:39.554Z,54.30
2018-06-18T16:04:09.573Z,55.40
2018-06-18T16:06:39.806Z,56.30
2018-06-18T16:09:11.018Z,55.30
2018-06-18T16:11:40.988Z,56.30
2018-06-18T16:14:11.472Z,56.70
2018-06-18T16:16:41.869Z,56.70
2018-06-18T16:21:41.619Z,55.80
2018-06-18T16:24:11.796Z,57.10
2018-06-18T16:26:41.842Z,57.50
2018-06-18T16:31:41.499Z,57.50
2018-06-18T16:34:11.568Z,58.50
2018-06-18T16:36:41.774Z,57.20
2018-06-18T16:39:13.675Z,57.80
2018-06-18T16:41:43.759Z,58.20
2018-06-18T16:44:13.824Z,58.50
2018-06-18T16:49:13.558Z,59.20
2018-06-18T16:51:43.578Z,58.90
2018-06-18T16:54:13.655Z,57.90
2018-06-18T16:56:43.697Z,58.70
2018-06-18T16:59:13.788Z,58.90
2018-06-18T17:01:43.876Z,60.10
2018-06-18T17:04:13.948Z,59.20
2018-06-18T17:06:44.020Z,60.20
2018-06-18T17:11:43.732Z,60.10
2018-06-18T17:14:13.964Z,61.10
2018-06-18T17:16:44.369Z,60.80
2018-06-18T17:19:14.732Z,60.50
2018-06-18T17:21:44.847Z,60.40
2018-06-18T17:24:15.262Z,60.80
2018-06-18T17:26:45.326Z,61.90
2018-06-18T17:29:15.978Z,60.20
2018-06-18T17:31:46.284Z,61.10
2018-06-18T17:34:16.504Z,61.00
2018-06-18T17:39:16.763Z,61.90
2018-06-18T17:41:46.976Z,61.10
2018-06-18T17:44:17.110Z,61.40
2018-06-18T17:46:47.110Z,60.90
2018-06-18T17:49:17.145Z,61.60
2018-06-18T17:51:47.168Z,61.60
2018-06-18T17:54:17.213Z,61.90
2018-06-18T17:56:47.335Z,62.50
2018-06-18T17:59:17.430Z,61.70
2018-06-18T18:01:47.571Z,62.70
2018-06-18T18:04:17.757Z,62.90
2018-06-18T18:06:47.815Z,63.50
2018-06-18T18:09:17.813Z,63.30
2018-06-18T18:11:48.091Z,63.00
2018-06-18T18:14:18.095Z,63.70
2018-06-18T18:16:48.183Z,64.60
2018-06-18T18:19:18.198Z,64.00
2018-06-18T18:21:48.261Z,64.30
2018-06-18T18:24:18.355Z,64.30
2018-06-18T18:26:48.424Z,64.50
2018-06-18T18:29:18.471Z,64.90
2018-06-18T18:31:48.642Z,65.50
2018-06-18T18:34:19.063Z,65.20
2018-06-18T18:36:49.332Z,65.60
2018-06-18T18:39:19.422Z,65.80
2018-06-18T18:41:49.479Z,65.80
2018-06-18T18:44:19.511Z,66.10
2018-06-18T18:46:49.690Z,65.90
2018-06-18T18:49:19.779Z,66.70
2018-06-18T18:51:50.436Z,65.60
2018-06-18T18:54:37.867Z,66.70
2018-06-18T18:57:48.967Z,66.80
2018-06-18T19:00:18.982Z,66.40
2018-06-18T19:02:49.065Z,66.10
2018-06-18T19:05:19.069Z,66.20
2018-06-18T19:07:49.276Z,66.30
2018-06-18T19:10:26.968Z,66.20
2018-06-18T19:12:59.318Z,66.50
2018-06-18T19:15:29.465Z,66.70
2018-06-18T19:17:59.535Z,66.80
2018-06-18T19:20:55.367Z,66.80
2018-06-18T19:23:25.486Z,67.00
2018-06-18T19:25:56.654Z,67.20
2018-06-18T19:31:17.742Z,67.90
2018-06-18T19:34:14.279Z,68.00
2018-06-18T19:36:59.422Z,68.60
2018-06-18T19:39:34.425Z,68.70
2018-06-18T19:42:04.625Z,68.80
2018-06-18T19:44:35.269Z,69.10
2018-06-18T19:47:21.727Z,69.10
2018-06-18T19:49:51.802Z,69.50
2018-06-18T19:52:21.854Z,70.30
2018-06-18T19:54:57.792Z,71.20
2018-06-18T19:57:28.026Z,72.10
2018-06-18T19:59:58.094Z,72.60
2018-06-18T20:02:28.400Z,72.80
2018-06-18T20:04:58.961Z,72.80
2018-06-18T20:07:29.126Z,73.30
2018-06-18T20:09:59.181Z,74.60
2018-06-18T20:12:29.587Z,74.30
2018-06-18T20:14:59.623Z,74.90
2018-06-18T20:17:29.832Z,75.20
2018-06-18T20:20:00.026Z,75.90
2018-06-18T20:22:30.247Z,76.60
2018-06-18T20:25:00.414Z,77.00
2018-06-18T20:27:30.693Z,77.40
2018-06-18T20:30:00.698Z,77.90
2018-06-18T20:32:31.027Z,78.20
2018-06-18T20:35:01.075Z,78.60
2018-06-18T20:37:31.229Z,79.10
2018-06-18T20:40:01.249Z,79.70
2018-06-18T20:42:31.569Z,79.90
2018-06-18T20:45:01.863Z,80.00
2018-06-18T20:50:01.716Z,80.90
2018-06-18T20:55:01.624Z,81.60
2018-06-18T20:57:31.985Z,81.50
2018-06-18T21:00:02.640Z,81.80
2018-06-18T21:02:33.747Z,82.10
2018-06-18T21:05:06.361Z,82.30
2018-06-18T21:07:36.457Z,81.70
2018-06-18T21:12:36.503Z,82.00
2018-06-18T21:15:07.228Z,82.10
2018-06-18T21:17:37.229Z,82.20
2018-06-18T21:20:07.273Z,82.20
2018-06-18T21:22:37.304Z,82.30
2018-06-18T21:25:07.346Z,82.70
2018-06-18T21:27:37.337Z,82.80
2018-06-18T21:30:08.243Z,82.90
2018-06-18T21:32:38.258Z,83.00
2018-06-18T21:35:08.302Z,83.10
2018-06-18T21:37:38.290Z,83.80
2018-06-18T21:40:08.326Z,84.10
2018-06-18T21:42:38.353Z,83.90
2018-06-18T21:45:14.187Z,84.00
2018-06-18T21:47:44.170Z,84.30
2018-06-18T21:50:14.210Z,84.40
2018-06-18T21:52:44.254Z,84.60
2018-06-18T21:55:14.620Z,84.80
2018-06-18T21:57:44.666Z,85.10
2018-06-18T22:00:25.022Z,85.40
2018-06-18T22:02:55.074Z,85.50
2018-06-18T22:05:25.097Z,85.30
2018-06-18T22:07:55.533Z,85.40
2018-06-18T22:10:25.597Z,85.70
2018-06-18T22:12:55.602Z,86.20
2018-06-18T22:15:25.701Z,86.60
2018-06-18T22:17:55.750Z,86.50
2018-06-18T22:22:55.578Z,87.10
2018-06-18T22:25:25.672Z,87.30
2018-06-18T22:27:55.941Z,87.20
2018-06-18T22:30:25.970Z,88.00
2018-06-18T22:32:56.000Z,87.50
2018-06-18T22:35:26.127Z,87.30
2018-06-18T22:37:56.165Z,87.30
2018-06-18T22:40:26.203Z,87.70
2018-06-18T22:42:56.225Z,88.10
2018-06-18T22:45:26.282Z,88.00
2018-06-18T22:47:56.319Z,88.70
2018-06-18T22:50:26.381Z,90.00
2018-06-18T22:52:57.109Z,89.40
2018-06-18T22:55:27.140Z,89.10
2018-06-18T22:57:57.186Z,89.20
2018-06-18T23:00:27.186Z,89.30
2018-06-18T23:02:57.235Z,89.30
2018-06-18T23:05:27.807Z,89.30
2018-06-18T23:07:57.853Z,89.60
2018-06-18T23:10:27.880Z,89.60
2018-06-18T23:12:57.861Z,89.70
2018-06-18T23:15:27.933Z,89.70
2018-06-18T23:17:57.958Z,89.90
2018-06-18T23:20:28.012Z,89.90
2018-06-18T23:22:58.123Z,90.00
2018-06-18T23:25:28.154Z,90.10
2018-06-18T23:27:58.186Z,90.20
2018-06-18T23:30:28.203Z,90.10
2018-06-18T23:32:58.228Z,90.30
2018-06-18T23:35:28.262Z,90.30
2018-06-18T23:37:58.390Z,90.30
2018-06-18T23:40:28.490Z,90.30
2018-06-18T23:45:28.266Z,90.30
2018-06-18T23:47:58.382Z,90.30
2018-06-18T23:50:28.549Z,90.40
2018-06-18T23:52:58.614Z,90.40
2018-06-18T23:55:28.666Z,90.50
2018-06-18T23:57:58.654Z,90.50
